sensor_id;sensor_type;location;lat;lon;timestamp;P1;durP1;ratioP1;P2;durP2;ratioP2
55270;SDS011;41132;47.162;9.470;2023-02-12T00:01:08;8.70;;;5.55;;
55270;SDS011;41132;47.162;9.470;2023-02-12T00:03:35;10.30;;;5.78;;
55270;SDS011;41132;47.162;9.470;2023-02-12T00:06:01;9.82;;;5.38;;
55270;SDS011;41132;47.162;9.470;2023-02-12T00:08:26;9.90;;;5.65;;
55270;SDS011;41132;47.162;9.470;2023-02-12T00:10:52;9.38;;;5.35;;
55270;SDS011;41132;47.162;9.470;2023-02-12T00:13:17;10.77;;;5.20;;
55270;SDS011;41132;47.162;9.470;2023-02-12T00:15:43;8.63;;;5.20;;
55270;SDS011;41132;47.162;9.470;2023-02-12T00:18:08;9.07;;;4.95;;
55270;SDS011;41132;47.162;9.470;2023-02-12T00:20:35;11.48;;;4.78;;
55270;SDS011;41132;47.162;9.470;2023-02-12T00:23:01;8.90;;;4.70;;
55270;SDS011;41132;47.162;9.470;2023-02-12T00:25:27;8.75;;;4.68;;
55270;SDS011;41132;47.162;9.470;2023-02-12T00:27:52;8.65;;;4.65;;
55270;SDS011;41132;47.162;9.470;2023-02-12T00:30:18;8.85;;;4.60;;
55270;SDS011;41132;47.162;9.470;2023-02-12T00:32:46;7.88;;;4.53;;
55270;SDS011;41132;47.162;9.470;2023-02-12T00:35:12;7.75;;;3.92;;
55270;SDS011;41132;47.162;9.470;2023-02-12T00:37:37;9.73;;;4.05;;
55270;SDS011;41132;47.162;9.470;2023-02-12T00:40:03;8.75;;;4.32;;
55270;SDS011;41132;47.162;9.470;2023-02-12T00:42:29;8.00;;;4.35;;
55270;SDS011;41132;47.162;9.470;2023-02-12T00:44:55;10.65;;;4.40;;
55270;SDS011;41132;47.162;9.470;2023-02-12T00:47:20;7.90;;;4.38;;
55270;SDS011;41132;47.162;9.470;2023-02-12T00:49:45;8.07;;;3.75;;
55270;SDS011;41132;47.162;9.470;2023-02-12T00:52:11;9.10;;;4.18;;
55270;SDS011;41132;47.162;9.470;2023-02-12T00:54:36;7.07;;;3.90;;
55270;SDS011;41132;47.162;9.470;2023-02-12T00:57:02;6.30;;;3.60;;
55270;SDS011;41132;47.162;9.470;2023-02-12T00:59:27;7.68;;;3.97;;
55270;SDS011;41132;47.162;9.470;2023-02-12T01:01:53;8.85;;;4.55;;
55270;SDS011;41132;47.162;9.470;2023-02-12T01:04:20;8.15;;;4.70;;
55270;SDS011;41132;47.162;9.470;2023-02-12T01:06:46;9.73;;;4.95;;
55270;SDS011;41132;47.162;9.470;2023-02-12T01:09:11;9.70;;;5.18;;
55270;SDS011;41132;47.162;9.470;2023-02-12T01:11:37;9.40;;;4.75;;
55270;SDS011;41132;47.162;9.470;2023-02-12T01:14:03;8.68;;;4.93;;
55270;SDS011;41132;47.162;9.470;2023-02-12T01:16:29;9.15;;;4.78;;
55270;SDS011;41132;47.162;9.470;2023-02-12T01:18:57;11.48;;;6.20;;
55270;SDS011;41132;47.162;9.470;2023-02-12T01:21:24;10.38;;;5.55;;
55270;SDS011;41132;47.162;9.470;2023-02-12T01:23:51;8.70;;;4.75;;
55270;SDS011;41132;47.162;9.470;2023-02-12T01:26:18;10.13;;;5.15;;
55270;SDS011;41132;47.162;9.470;2023-02-12T01:28:47;10.65;;;4.88;;
55270;SDS011;41132;47.162;9.470;2023-02-12T01:31:18;9.75;;;4.45;;
55270;SDS011;41132;47.162;9.470;2023-02-12T01:33:46;8.93;;;4.60;;
55270;SDS011;41132;47.162;9.470;2023-02-12T01:36:13;8.52;;;4.63;;
55270;SDS011;41132;47.162;9.470;2023-02-12T01:38:38;9.68;;;5.20;;
55270;SDS011;41132;47.162;9.470;2023-02-12T01:41:05;10.95;;;4.57;;
55270;SDS011;41132;47.162;9.470;2023-02-12T01:43:32;9.70;;;4.80;;
55270;SDS011;41132;47.162;9.470;2023-02-12T01:45:58;11.18;;;4.82;;
55270;SDS011;41132;47.162;9.470;2023-02-12T01:48:25;8.15;;;4.82;;
55270;SDS011;41132;47.162;9.470;2023-02-12T01:50:53;7.93;;;4.82;;
55270;SDS011;41132;47.162;9.470;2023-02-12T01:53:21;8.73;;;4.40;;
55270;SDS011;41132;47.162;9.470;2023-02-12T01:55:52;8.45;;;4.88;;
55270;SDS011;41132;47.162;9.470;2023-02-12T01:58:22;8.13;;;4.03;;
55270;SDS011;41132;47.162;9.470;2023-02-12T02:00:51;7.25;;;3.90;;
55270;SDS011;41132;47.162;9.470;2023-02-12T02:03:16;8.68;;;4.70;;
55270;SDS011;41132;47.162;9.470;2023-02-12T02:08:19;8.48;;;4.18;;
55270;SDS011;41132;47.162;9.470;2023-02-12T02:10:45;6.68;;;3.38;;
55270;SDS011;41132;47.162;9.470;2023-02-12T02:13:10;7.47;;;3.97;;
55270;SDS011;41132;47.162;9.470;2023-02-12T02:15:56;11.18;;;4.20;;
55270;SDS011;41132;47.162;9.470;2023-02-12T02:21:17;7.40;;;4.13;;
55270;SDS011;41132;47.162;9.470;2023-02-12T02:35:22;7.95;;;3.33;;
55270;SDS011;41132;47.162;9.470;2023-02-12T02:38:23;7.78;;;3.50;;
55270;SDS011;41132;47.162;9.470;2023-02-12T02:41:06;9.30;;;3.65;;
55270;SDS011;41132;47.162;9.470;2023-02-12T02:43:47;7.90;;;4.18;;
55270;SDS011;41132;47.162;9.470;2023-02-12T02:46:26;7.40;;;3.97;;
55270;SDS011;41132;47.162;9.470;2023-02-12T02:49:00;7.05;;;4.20;;
55270;SDS011;41132;47.162;9.470;2023-02-12T02:51:30;9.77;;;4.53;;
55270;SDS011;41132;47.162;9.470;2023-02-12T02:54:13;9.13;;;5.15;;
55270;SDS011;41132;47.162;9.470;2023-02-12T02:56:46;8.63;;;4.68;;
55270;SDS011;41132;47.162;9.470;2023-02-12T02:59:16;8.60;;;4.82;;
55270;SDS011;41132;47.162;9.470;2023-02-12T03:01:51;9.30;;;5.03;;
55270;SDS011;41132;47.162;9.470;2023-02-12T03:04:35;7.68;;;3.83;;
55270;SDS011;41132;47.162;9.470;2023-02-12T03:07:06;8.43;;;4.00;;
55270;SDS011;41132;47.162;9.470;2023-02-12T03:09:48;8.93;;;4.47;;
55270;SDS011;41132;47.162;9.470;2023-02-12T03:12:19;8.07;;;4.10;;
55270;SDS011;41132;47.162;9.470;2023-02-12T03:14:53;9.95;;;4.10;;
55270;SDS011;41132;47.162;9.470;2023-02-12T03:17:42;7.95;;;3.70;;
55270;SDS011;41132;47.162;9.470;2023-02-12T03:23:31;6.88;;;3.63;;
55270;SDS011;41132;47.162;9.470;2023-02-12T03:25:48;6.90;;;4.03;;
55270;SDS011;41132;47.162;9.470;2023-02-12T03:28:41;6.40;;;3.17;;
55270;SDS011;41132;47.162;9.470;2023-02-12T03:31:10;6.13;;;3.47;;
55270;SDS011;41132;47.162;9.470;2023-02-12T03:39:28;7.03;;;3.22;;
55270;SDS011;41132;47.162;9.470;2023-02-12T03:42:04;6.85;;;3.80;;
55270;SDS011;41132;47.162;9.470;2023-02-12T03:44:54;7.43;;;3.92;;
55270;SDS011;41132;47.162;9.470;2023-02-12T03:47:34;6.40;;;3.17;;
55270;SDS011;41132;47.162;9.470;2023-02-12T03:50:16;7.45;;;3.53;;
55270;SDS011;41132;47.162;9.470;2023-02-12T03:52:47;6.47;;;3.47;;
55270;SDS011;41132;47.162;9.470;2023-02-12T03:55:14;6.13;;;3.45;;
55270;SDS011;41132;47.162;9.470;2023-02-12T03:57:45;7.72;;;3.00;;
55270;SDS011;41132;47.162;9.470;2023-02-12T04:00:19;6.05;;;3.17;;
55270;SDS011;41132;47.162;9.470;2023-02-12T04:02:47;6.10;;;3.17;;
55270;SDS011;41132;47.162;9.470;2023-02-12T04:05:22;6.55;;;3.75;;
55270;SDS011;41132;47.162;9.470;2023-02-12T04:07:49;6.57;;;3.30;;
55270;SDS011;41132;47.162;9.470;2023-02-12T04:10:16;7.47;;;4.45;;
55270;SDS011;41132;47.162;9.470;2023-02-12T04:12:46;7.65;;;4.38;;
55270;SDS011;41132;47.162;9.470;2023-02-12T04:15:42;11.73;;;4.63;;
55270;SDS011;41132;47.162;9.470;2023-02-12T04:18:26;7.30;;;4.00;;
55270;SDS011;41132;47.162;9.470;2023-02-12T04:26:49;8.88;;;4.20;;
55270;SDS011;41132;47.162;9.470;2023-02-12T04:29:32;7.63;;;4.28;;
55270;SDS011;41132;47.162;9.470;2023-02-12T04:32:04;7.53;;;4.10;;
55270;SDS011;41132;47.162;9.470;2023-02-12T04:37:37;9.93;;;4.72;;
55270;SDS011;41132;47.162;9.470;2023-02-12T04:40:14;12.60;;;5.10;;
55270;SDS011;41132;47.162;9.470;2023-02-12T04:42:45;11.45;;;6.40;;
55270;SDS011;41132;47.162;9.470;2023-02-12T04:45:14;9.88;;;5.95;;
55270;SDS011;41132;47.162;9.470;2023-02-12T04:47:44;9.93;;;6.00;;
55270;SDS011;41132;47.162;9.470;2023-02-12T04:50:10;11.50;;;6.05;;
55270;SDS011;41132;47.162;9.470;2023-02-12T04:52:36;11.95;;;6.75;;
55270;SDS011;41132;47.162;9.470;2023-02-12T04:55:01;12.82;;;6.40;;
55270;SDS011;41132;47.162;9.470;2023-02-12T04:57:27;9.80;;;5.18;;
55270;SDS011;41132;47.162;9.470;2023-02-12T04:59:52;13.50;;;5.60;;
55270;SDS011;41132;47.162;9.470;2023-02-12T05:02:18;9.98;;;5.88;;
55270;SDS011;41132;47.162;9.470;2023-02-12T05:04:43;11.73;;;6.32;;
55270;SDS011;41132;47.162;9.470;2023-02-12T05:07:09;9.60;;;5.35;;
55270;SDS011;41132;47.162;9.470;2023-02-12T05:09:35;12.93;;;5.63;;
55270;SDS011;41132;47.162;9.470;2023-02-12T05:12:01;9.93;;;5.28;;
55270;SDS011;41132;47.162;9.470;2023-02-12T05:14:26;8.02;;;4.65;;
55270;SDS011;41132;47.162;9.470;2023-02-12T05:16:51;10.75;;;5.32;;
55270;SDS011;41132;47.162;9.470;2023-02-12T05:19:17;10.05;;;5.72;;
55270;SDS011;41132;47.162;9.470;2023-02-12T05:21:42;9.07;;;5.10;;
55270;SDS011;41132;47.162;9.470;2023-02-12T05:24:07;10.68;;;5.13;;
55270;SDS011;41132;47.162;9.470;2023-02-12T05:26:33;10.40;;;5.35;;
55270;SDS011;41132;47.162;9.470;2023-02-12T05:28:58;11.68;;;5.90;;
55270;SDS011;41132;47.162;9.470;2023-02-12T05:31:24;10.85;;;5.22;;
55270;SDS011;41132;47.162;9.470;2023-02-12T05:33:49;9.60;;;5.18;;
55270;SDS011;41132;47.162;9.470;2023-02-12T05:36:17;10.20;;;5.30;;
55270;SDS011;41132;47.162;9.470;2023-02-12T05:38:44;9.10;;;5.35;;
55270;SDS011;41132;47.162;9.470;2023-02-12T05:41:13;12.38;;;6.15;;
55270;SDS011;41132;47.162;9.470;2023-02-12T05:43:43;12.60;;;6.05;;
55270;SDS011;41132;47.162;9.470;2023-02-12T05:46:09;9.43;;;5.20;;
55270;SDS011;41132;47.162;9.470;2023-02-12T05:48:35;10.15;;;5.10;;
55270;SDS011;41132;47.162;9.470;2023-02-12T05:51:06;10.98;;;5.15;;
55270;SDS011;41132;47.162;9.470;2023-02-12T05:53:33;8.80;;;5.07;;
55270;SDS011;41132;47.162;9.470;2023-02-12T05:56:33;11.77;;;5.07;;
55270;SDS011;41132;47.162;9.470;2023-02-12T05:59:05;8.35;;;4.88;;
55270;SDS011;41132;47.162;9.470;2023-02-12T06:01:36;11.07;;;7.10;;
55270;SDS011;41132;47.162;9.470;2023-02-12T06:04:04;9.93;;;5.70;;
55270;SDS011;41132;47.162;9.470;2023-02-12T06:06:31;11.80;;;9.55;;
55270;SDS011;41132;47.162;9.470;2023-02-12T06:08:58;10.32;;;6.03;;
55270;SDS011;41132;47.162;9.470;2023-02-12T06:11:25;8.10;;;5.32;;
55270;SDS011;41132;47.162;9.470;2023-02-12T06:13:51;8.38;;;5.30;;
55270;SDS011;41132;47.162;9.470;2023-02-12T06:16:21;10.10;;;5.13;;
55270;SDS011;41132;47.162;9.470;2023-02-12T06:18:48;8.30;;;5.30;;
55270;SDS011;41132;47.162;9.470;2023-02-12T06:21:15;7.97;;;4.93;;
55270;SDS011;41132;47.162;9.470;2023-02-12T06:23:42;11.02;;;5.22;;
55270;SDS011;41132;47.162;9.470;2023-02-12T06:26:08;8.23;;;5.00;;
55270;SDS011;41132;47.162;9.470;2023-02-12T06:28:33;12.32;;;6.75;;
55270;SDS011;41132;47.162;9.470;2023-02-12T06:30:58;9.70;;;5.80;;
55270;SDS011;41132;47.162;9.470;2023-02-12T06:33:24;10.02;;;5.53;;
55270;SDS011;41132;47.162;9.470;2023-02-12T06:35:50;8.90;;;5.95;;
55270;SDS011;41132;47.162;9.470;2023-02-12T06:38:15;9.43;;;5.45;;
55270;SDS011;41132;47.162;9.470;2023-02-12T06:40:41;9.98;;;5.35;;
55270;SDS011;41132;47.162;9.470;2023-02-12T06:43:06;10.23;;;5.05;;
55270;SDS011;41132;47.162;9.470;2023-02-12T06:45:32;8.63;;;5.05;;
55270;SDS011;41132;47.162;9.470;2023-02-12T06:47:57;9.02;;;4.85;;
55270;SDS011;41132;47.162;9.470;2023-02-12T06:50:23;9.82;;;4.35;;
55270;SDS011;41132;47.162;9.470;2023-02-12T06:52:49;8.70;;;4.63;;
55270;SDS011;41132;47.162;9.470;2023-02-12T06:55:14;9.35;;;5.07;;
55270;SDS011;41132;47.162;9.470;2023-02-12T06:57:40;9.90;;;6.65;;
55270;SDS011;41132;47.162;9.470;2023-02-12T07:00:06;11.07;;;6.30;;
55270;SDS011;41132;47.162;9.470;2023-02-12T07:02:32;12.38;;;7.35;;
55270;SDS011;41132;47.162;9.470;2023-02-12T07:04:58;13.18;;;8.48;;
55270;SDS011;41132;47.162;9.470;2023-02-12T07:07:23;13.90;;;8.63;;
55270;SDS011;41132;47.162;9.470;2023-02-12T07:09:48;13.35;;;7.70;;
55270;SDS011;41132;47.162;9.470;2023-02-12T07:12:14;16.73;;;10.07;;
55270;SDS011;41132;47.162;9.470;2023-02-12T07:14:39;15.30;;;8.20;;
55270;SDS011;41132;47.162;9.470;2023-02-12T07:17:04;12.80;;;7.30;;
55270;SDS011;41132;47.162;9.470;2023-02-12T07:19:31;16.73;;;9.02;;
55270;SDS011;41132;47.162;9.470;2023-02-12T07:21:57;15.38;;;8.52;;
55270;SDS011;41132;47.162;9.470;2023-02-12T07:24:22;15.00;;;8.50;;
55270;SDS011;41132;47.162;9.470;2023-02-12T07:26:48;10.57;;;6.68;;
55270;SDS011;41132;47.162;9.470;2023-02-12T07:29:13;12.93;;;7.63;;
55270;SDS011;41132;47.162;9.470;2023-02-12T07:31:39;10.82;;;6.68;;
55270;SDS011;41132;47.162;9.470;2023-02-12T07:34:05;11.20;;;6.18;;
55270;SDS011;41132;47.162;9.470;2023-02-12T07:36:31;12.57;;;7.00;;
55270;SDS011;41132;47.162;9.470;2023-02-12T07:38:57;11.10;;;7.50;;
55270;SDS011;41132;47.162;9.470;2023-02-12T07:43:57;13.18;;;8.07;;
55270;SDS011;41132;47.162;9.470;2023-02-12T07:46:28;11.80;;;6.85;;
55270;SDS011;41132;47.162;9.470;2023-02-12T07:48:56;11.35;;;7.20;;
55270;SDS011;41132;47.162;9.470;2023-02-12T07:51:23;11.43;;;7.03;;
55270;SDS011;41132;47.162;9.470;2023-02-12T07:53:50;11.52;;;7.15;;
55270;SDS011;41132;47.162;9.470;2023-02-12T07:56:17;12.05;;;6.93;;
55270;SDS011;41132;47.162;9.470;2023-02-12T07:58:44;12.77;;;6.63;;
55270;SDS011;41132;47.162;9.470;2023-02-12T08:01:18;12.80;;;6.80;;
55270;SDS011;41132;47.162;9.470;2023-02-12T08:03:46;11.77;;;7.05;;
55270;SDS011;41132;47.162;9.470;2023-02-12T08:06:14;14.32;;;7.13;;
55270;SDS011;41132;47.162;9.470;2023-02-12T08:08:41;10.13;;;6.57;;
55270;SDS011;41132;47.162;9.470;2023-02-12T08:11:07;11.43;;;6.15;;
55270;SDS011;41132;47.162;9.470;2023-02-12T08:13:34;11.02;;;6.60;;
55270;SDS011;41132;47.162;9.470;2023-02-12T08:16:05;13.65;;;7.30;;
55270;SDS011;41132;47.162;9.470;2023-02-12T08:18:32;13.32;;;7.38;;
55270;SDS011;41132;47.162;9.470;2023-02-12T08:21:08;14.43;;;8.05;;
55270;SDS011;41132;47.162;9.470;2023-02-12T08:23:36;12.98;;;6.35;;
55270;SDS011;41132;47.162;9.470;2023-02-12T08:26:14;10.57;;;6.30;;
55270;SDS011;41132;47.162;9.470;2023-02-12T08:28:55;10.43;;;6.32;;
55270;SDS011;41132;47.162;9.470;2023-02-12T08:31:27;11.93;;;7.05;;
55270;SDS011;41132;47.162;9.470;2023-02-12T08:33:54;10.88;;;6.25;;
55270;SDS011;41132;47.162;9.470;2023-02-12T08:36:21;10.40;;;5.95;;
55270;SDS011;41132;47.162;9.470;2023-02-12T08:38:48;10.38;;;6.13;;
55270;SDS011;41132;47.162;9.470;2023-02-12T08:41:17;11.02;;;6.25;;
55270;SDS011;41132;47.162;9.470;2023-02-12T08:43:47;11.82;;;6.80;;
55270;SDS011;41132;47.162;9.470;2023-02-12T08:46:18;9.68;;;5.32;;
55270;SDS011;41132;47.162;9.470;2023-02-12T08:48:45;10.07;;;5.57;;
55270;SDS011;41132;47.162;9.470;2023-02-12T08:51:12;8.40;;;5.18;;
55270;SDS011;41132;47.162;9.470;2023-02-12T08:53:40;9.73;;;5.43;;
55270;SDS011;41132;47.162;9.470;2023-02-12T08:56:08;9.07;;;5.30;;
55270;SDS011;41132;47.162;9.470;2023-02-12T08:58:34;8.88;;;5.38;;
55270;SDS011;41132;47.162;9.470;2023-02-12T09:01:01;10.07;;;6.10;;
55270;SDS011;41132;47.162;9.470;2023-02-12T09:03:27;9.75;;;5.30;;
55270;SDS011;41132;47.162;9.470;2023-02-12T09:05:52;10.60;;;5.07;;
55270;SDS011;41132;47.162;9.470;2023-02-12T09:08:18;8.45;;;4.78;;
55270;SDS011;41132;47.162;9.470;2023-02-12T09:10:43;9.02;;;5.00;;
55270;SDS011;41132;47.162;9.470;2023-02-12T09:13:10;8.75;;;5.07;;
55270;SDS011;41132;47.162;9.470;2023-02-12T09:15:43;7.50;;;4.70;;
55270;SDS011;41132;47.162;9.470;2023-02-12T09:18:09;9.05;;;5.10;;
55270;SDS011;41132;47.162;9.470;2023-02-12T09:20:40;7.97;;;4.60;;
55270;SDS011;41132;47.162;9.470;2023-02-12T09:23:08;9.35;;;4.57;;
55270;SDS011;41132;47.162;9.470;2023-02-12T09:25:43;8.93;;;4.57;;
55270;SDS011;41132;47.162;9.470;2023-02-12T09:28:10;8.20;;;4.07;;
55270;SDS011;41132;47.162;9.470;2023-02-12T09:30:37;6.93;;;3.40;;
55270;SDS011;41132;47.162;9.470;2023-02-12T09:33:03;7.43;;;3.97;;
55270;SDS011;41132;47.162;9.470;2023-02-12T09:35:29;7.30;;;4.10;;
55270;SDS011;41132;47.162;9.470;2023-02-12T09:37:57;6.30;;;3.47;;
55270;SDS011;41132;47.162;9.470;2023-02-12T09:40:34;8.27;;;4.30;;
55270;SDS011;41132;47.162;9.470;2023-02-12T09:43:09;8.50;;;4.18;;
55270;SDS011;41132;47.162;9.470;2023-02-12T09:45:38;9.38;;;4.75;;
55270;SDS011;41132;47.162;9.470;2023-02-12T09:53:07;7.35;;;3.83;;
55270;SDS011;41132;47.162;9.470;2023-02-12T09:55:40;8.77;;;4.70;;
55270;SDS011;41132;47.162;9.470;2023-02-12T09:58:10;8.68;;;4.75;;
55270;SDS011;41132;47.162;9.470;2023-02-12T10:00:39;7.95;;;4.38;;
55270;SDS011;41132;47.162;9.470;2023-02-12T10:03:15;8.95;;;4.70;;
55270;SDS011;41132;47.162;9.470;2023-02-12T10:05:47;9.15;;;5.30;;
55270;SDS011;41132;47.162;9.470;2023-02-12T10:08:28;8.32;;;5.03;;
55270;SDS011;41132;47.162;9.470;2023-02-12T10:11:09;8.70;;;5.07;;
55270;SDS011;41132;47.162;9.470;2023-02-12T10:13:56;9.23;;;5.10;;
55270;SDS011;41132;47.162;9.470;2023-02-12T10:27:24;8.00;;;5.22;;
55270;SDS011;41132;47.162;9.470;2023-02-12T10:30:03;9.15;;;4.65;;
55270;SDS011;41132;47.162;9.470;2023-02-12T10:32:37;8.38;;;4.68;;
55270;SDS011;41132;47.162;9.470;2023-02-12T10:35:11;8.48;;;4.28;;
55270;SDS011;41132;47.162;9.470;2023-02-12T10:37:47;13.27;;;5.30;;
55270;SDS011;41132;47.162;9.470;2023-02-12T10:40:26;9.45;;;4.82;;
55270;SDS011;41132;47.162;9.470;2023-02-12T10:42:56;7.28;;;4.53;;
55270;SDS011;41132;47.162;9.470;2023-02-12T10:45:33;8.20;;;4.38;;
55270;SDS011;41132;47.162;9.470;2023-02-12T10:48:10;8.07;;;4.70;;
55270;SDS011;41132;47.162;9.470;2023-02-12T10:51:00;8.82;;;4.75;;
55270;SDS011;41132;47.162;9.470;2023-02-12T10:53:37;8.73;;;4.90;;
55270;SDS011;41132;47.162;9.470;2023-02-12T10:58:51;8.88;;;4.85;;
55270;SDS011;41132;47.162;9.470;2023-02-12T11:03:56;7.60;;;4.75;;
55270;SDS011;41132;47.162;9.470;2023-02-12T11:06:24;8.10;;;4.97;;
55270;SDS011;41132;47.162;9.470;2023-02-12T11:08:57;8.70;;;4.57;;
55270;SDS011;41132;47.162;9.470;2023-02-12T11:11:27;7.20;;;4.53;;
55270;SDS011;41132;47.162;9.470;2023-02-12T11:16:33;7.93;;;4.63;;
55270;SDS011;41132;47.162;9.470;2023-02-12T11:19:02;8.23;;;4.35;;
55270;SDS011;41132;47.162;9.470;2023-02-12T11:21:30;7.93;;;3.80;;
55270;SDS011;41132;47.162;9.470;2023-02-12T11:23:56;6.72;;;3.90;;
55270;SDS011;41132;47.162;9.470;2023-02-12T11:26:26;7.03;;;4.15;;
55270;SDS011;41132;47.162;9.470;2023-02-12T11:28:57;6.50;;;3.78;;
55270;SDS011;41132;47.162;9.470;2023-02-12T11:31:28;7.40;;;3.80;;
55270;SDS011;41132;47.162;9.470;2023-02-12T11:36:36;6.93;;;3.78;;
55270;SDS011;41132;47.162;9.470;2023-02-12T11:39:05;7.00;;;3.70;;
55270;SDS011;41132;47.162;9.470;2023-02-12T11:41:40;6.32;;;3.20;;
55270;SDS011;41132;47.162;9.470;2023-02-12T11:44:11;8.30;;;3.22;;
55270;SDS011;41132;47.162;9.470;2023-02-12T11:46:45;6.45;;;3.42;;
55270;SDS011;41132;47.162;9.470;2023-02-12T11:49:19;5.88;;;3.55;;
55270;SDS011;41132;47.162;9.470;2023-02-12T11:54:21;6.55;;;3.53;;
55270;SDS011;41132;47.162;9.470;2023-02-12T11:56:49;7.03;;;3.47;;
55270;SDS011;41132;47.162;9.470;2023-02-12T11:59:20;7.82;;;3.72;;
55270;SDS011;41132;47.162;9.470;2023-02-12T12:01:54;7.28;;;3.78;;
55270;SDS011;41132;47.162;9.470;2023-02-12T12:04:22;6.55;;;3.60;;
55270;SDS011;41132;47.162;9.470;2023-02-12T12:07:15;6.03;;;3.40;;
55270;SDS011;41132;47.162;9.470;2023-02-12T12:09:50;6.45;;;3.72;;
55270;SDS011;41132;47.162;9.470;2023-02-12T12:12:34;7.45;;;3.88;;
55270;SDS011;41132;47.162;9.470;2023-02-12T12:23:45;7.63;;;4.22;;
55270;SDS011;41132;47.162;9.470;2023-02-12T12:26:23;7.78;;;4.43;;
55270;SDS011;41132;47.162;9.470;2023-02-12T12:32:05;7.93;;;4.68;;
55270;SDS011;41132;47.162;9.470;2023-02-12T12:34:31;9.48;;;5.47;;
55270;SDS011;41132;47.162;9.470;2023-02-12T13:10:47;8.30;;;4.85;;
55270;SDS011;41132;47.162;9.470;2023-02-12T13:18:34;8.15;;;5.25;;
55270;SDS011;41132;47.162;9.470;2023-02-12T13:21:09;8.88;;;5.50;;
55270;SDS011;41132;47.162;9.470;2023-02-12T13:24:00;8.25;;;5.32;;
55270;SDS011;41132;47.162;9.470;2023-02-12T13:26:32;8.50;;;5.10;;
55270;SDS011;41132;47.162;9.470;2023-02-12T13:29:22;8.27;;;5.25;;
55270;SDS011;41132;47.162;9.470;2023-02-12T13:34:23;8.07;;;5.10;;
55270;SDS011;41132;47.162;9.470;2023-02-12T13:36:53;8.75;;;4.95;;
55270;SDS011;41132;47.162;9.470;2023-02-12T13:42:20;7.65;;;4.60;;
55270;SDS011;41132;47.162;9.470;2023-02-12T13:53:53;7.65;;;4.72;;
55270;SDS011;41132;47.162;9.470;2023-02-12T14:02:03;8.20;;;4.90;;
55270;SDS011;41132;47.162;9.470;2023-02-12T14:07:17;9.18;;;5.05;;
55270;SDS011;41132;47.162;9.470;2023-02-12T14:09:45;8.27;;;4.75;;
55270;SDS011;41132;47.162;9.470;2023-02-12T14:14:52;7.63;;;4.53;;
55270;SDS011;41132;47.162;9.470;2023-02-12T14:17:50;7.43;;;3.45;;
55270;SDS011;41132;47.162;9.470;2023-02-12T14:27:42;6.05;;;3.40;;
55270;SDS011;41132;47.162;9.470;2023-02-12T14:37:54;5.30;;;2.60;;
55270;SDS011;41132;47.162;9.470;2023-02-12T14:43:00;4.65;;;2.30;;
55270;SDS011;41132;47.162;9.470;2023-02-12T14:45:30;5.32;;;2.42;;
55270;SDS011;41132;47.162;9.470;2023-02-12T14:48:00;7.32;;;2.75;;
55270;SDS011;41132;47.162;9.470;2023-02-12T14:50:28;4.82;;;2.20;;
55270;SDS011;41132;47.162;9.470;2023-02-12T14:53:04;5.45;;;2.80;;
55270;SDS011;41132;47.162;9.470;2023-02-12T14:55:40;5.45;;;2.65;;
55270;SDS011;41132;47.162;9.470;2023-02-12T14:58:18;7.80;;;3.20;;
55270;SDS011;41132;47.162;9.470;2023-02-12T15:00:46;5.68;;;2.70;;
55270;SDS011;41132;47.162;9.470;2023-02-12T15:11:21;5.38;;;2.20;;
55270;SDS011;41132;47.162;9.470;2023-02-12T15:16:40;4.65;;;1.98;;
55270;SDS011;41132;47.162;9.470;2023-02-12T15:19:19;4.43;;;2.20;;
55270;SDS011;41132;47.162;9.470;2023-02-12T15:21:47;5.88;;;2.88;;
55270;SDS011;41132;47.162;9.470;2023-02-12T15:24:22;7.80;;;3.53;;
55270;SDS011;41132;47.162;9.470;2023-02-12T15:26:52;7.28;;;3.70;;
55270;SDS011;41132;47.162;9.470;2023-02-12T15:29:30;7.30;;;3.55;;
55270;SDS011;41132;47.162;9.470;2023-02-12T15:32:04;7.65;;;3.67;;
55270;SDS011;41132;47.162;9.470;2023-02-12T15:34:32;7.15;;;3.60;;
55270;SDS011;41132;47.162;9.470;2023-02-12T15:37:02;10.38;;;4.82;;
55270;SDS011;41132;47.162;9.470;2023-02-12T15:39:44;6.07;;;3.40;;
55270;SDS011;41132;47.162;9.470;2023-02-12T15:43:16;5.60;;;3.38;;
55270;SDS011;41132;47.162;9.470;2023-02-12T15:45:27;7.43;;;3.42;;
55270;SDS011;41132;47.162;9.470;2023-02-12T15:47:56;6.50;;;3.70;;
55270;SDS011;41132;47.162;9.470;2023-02-12T15:50:23;6.90;;;4.05;;
55270;SDS011;41132;47.162;9.470;2023-02-12T15:52:49;6.78;;;3.58;;
55270;SDS011;41132;47.162;9.470;2023-02-12T15:55:20;6.40;;;3.50;;
55270;SDS011;41132;47.162;9.470;2023-02-12T15:57:53;7.35;;;3.45;;
55270;SDS011;41132;47.162;9.470;2023-02-12T16:02:54;7.78;;;3.83;;
55270;SDS011;41132;47.162;9.470;2023-02-12T16:05:20;6.55;;;3.35;;
55270;SDS011;41132;47.162;9.470;2023-02-12T16:07:46;6.90;;;3.78;;
55270;SDS011;41132;47.162;9.470;2023-02-12T16:10:17;7.47;;;4.13;;
55270;SDS011;41132;47.162;9.470;2023-02-12T16:12:43;7.28;;;3.60;;
55270;SDS011;41132;47.162;9.470;2023-02-12T16:15:27;8.13;;;3.70;;
55270;SDS011;41132;47.162;9.470;2023-02-12T16:17:55;7.40;;;4.32;;
55270;SDS011;41132;47.162;9.470;2023-02-12T16:20:23;7.60;;;3.78;;
55270;SDS011;41132;47.162;9.470;2023-02-12T16:22:52;6.88;;;3.47;;
55270;SDS011;41132;47.162;9.470;2023-02-12T16:25:23;6.55;;;3.88;;
55270;SDS011;41132;47.162;9.470;2023-02-12T16:28:01;6.95;;;4.00;;
55270;SDS011;41132;47.162;9.470;2023-02-12T16:30:35;6.50;;;3.60;;
55270;SDS011;41132;47.162;9.470;2023-02-12T16:33:30;6.53;;;3.92;;
55270;SDS011;41132;47.162;9.470;2023-02-12T16:36:44;7.90;;;4.88;;
55270;SDS011;41132;47.162;9.470;2023-02-12T16:38:47;7.25;;;4.25;;
55270;SDS011;41132;47.162;9.470;2023-02-12T16:43:50;8.10;;;4.40;;
55270;SDS011;41132;47.162;9.470;2023-02-12T16:46:44;7.25;;;4.15;;
55270;SDS011;41132;47.162;9.470;2023-02-12T16:49:16;7.60;;;4.05;;
55270;SDS011;41132;47.162;9.470;2023-02-12T16:51:43;8.68;;;4.53;;
55270;SDS011;41132;47.162;9.470;2023-02-12T16:56:52;9.35;;;6.30;;
55270;SDS011;41132;47.162;9.470;2023-02-12T16:59:18;8.32;;;5.70;;
55270;SDS011;41132;47.162;9.470;2023-02-12T17:01:55;8.30;;;5.38;;
55270;SDS011;41132;47.162;9.470;2023-02-12T17:04:28;8.88;;;5.82;;
55270;SDS011;41132;47.162;9.470;2023-02-12T17:06:54;9.38;;;4.72;;
55270;SDS011;41132;47.162;9.470;2023-02-12T17:09:19;8.13;;;4.38;;
55270;SDS011;41132;47.162;9.470;2023-02-12T17:11:45;8.25;;;4.68;;
55270;SDS011;41132;47.162;9.470;2023-02-12T17:14:14;6.63;;;4.03;;
55270;SDS011;41132;47.162;9.470;2023-02-12T17:16:41;6.50;;;3.45;;
55270;SDS011;41132;47.162;9.470;2023-02-12T17:19:07;6.35;;;3.42;;
55270;SDS011;41132;47.162;9.470;2023-02-12T17:21:33;8.63;;;3.75;;
55270;SDS011;41132;47.162;9.470;2023-02-12T17:24:25;6.57;;;3.65;;
55270;SDS011;41132;47.162;9.470;2023-02-12T17:26:51;6.45;;;3.65;;
55270;SDS011;41132;47.162;9.470;2023-02-12T17:29:17;7.07;;;3.40;;
55270;SDS011;41132;47.162;9.470;2023-02-12T17:31:44;6.97;;;3.97;;
55270;SDS011;41132;47.162;9.470;2023-02-12T17:34:09;9.05;;;5.43;;
55270;SDS011;41132;47.162;9.470;2023-02-12T17:36:35;7.30;;;4.70;;
55270;SDS011;41132;47.162;9.470;2023-02-12T17:39:02;9.55;;;4.57;;
55270;SDS011;41132;47.162;9.470;2023-02-12T17:41:30;7.57;;;4.15;;
55270;SDS011;41132;47.162;9.470;2023-02-12T17:43:56;6.70;;;3.60;;
55270;SDS011;41132;47.162;9.470;2023-02-12T17:46:23;6.25;;;2.85;;
55270;SDS011;41132;47.162;9.470;2023-02-12T17:48:50;6.70;;;3.22;;
55270;SDS011;41132;47.162;9.470;2023-02-12T17:51:15;5.40;;;2.65;;
55270;SDS011;41132;47.162;9.470;2023-02-12T17:53:41;6.57;;;3.08;;
55270;SDS011;41132;47.162;9.470;2023-02-12T17:56:14;5.55;;;2.60;;
55270;SDS011;41132;47.162;9.470;2023-02-12T17:58:41;5.70;;;2.78;;
55270;SDS011;41132;47.162;9.470;2023-02-12T18:01:08;6.72;;;2.95;;
55270;SDS011;41132;47.162;9.470;2023-02-12T18:03:35;6.55;;;2.70;;